Time;durP1;ratioP1;P1;durP2;ratioP2;P2;SDS_P1;SDS_P2;PMS_P1;PMS_P2;Temp;Humidity;BMP_temperature;BMP_pressure;BME280_temperature;BME280_humidity;BME280_pressure;Samples;Min_cycle;Max_cycle;Signal;HPM_P1;HPM_P2
2022/01/10 00:00:11;;;;;;;11.33;3.70;;;;;;;2.77;100.00;99503.88;5059103;28;20309;-57
2022/01/10 00:02:37;;;;;;;6.90;3.10;;;;;;;2.88;100.00;99509.47;5056970;28;20329;-57
2022/01/10 00:05:03;;;;;;;11.07;3.80;;;;;;;3.01;100.00;99508.16;5051583;28;20176;-57
2022/01/10 00:07:28;;;;;;;8.93;3.33;;;;;;;3.07;100.00;99515.59;5051665;28;20180;-57
2022/01/10 00:09:54;;;;;;;7.00;3.30;;;;;;;3.09;100.00;99514.72;5051578;28;20165;-58
2022/01/10 00:12:19;;;;;;;6.63;3.53;;;;;;;3.03;100.00;99520.84;5040113;28;20237;-57
2022/01/10 00:14:44;;;;;;;7.70;3.83;;;;;;;2.99;100.00;99515.03;5051225;28;20183;-57
2022/01/10 00:17:10;;;;;;;8.63;3.07;;;;;;;2.98;100.00;99521.00;5056799;28;20251;-57
2022/01/10 00:19:35;;;;;;;9.67;3.57;;;;;;;2.90;100.00;99530.56;5051439;28;20188;-58
2022/01/10 00:22:00;;;;;;;10.47;4.03;;;;;;;2.68;100.00;99531.25;5056291;28;20593;-58
2022/01/10 00:24:26;;;;;;;9.97;4.00;;;;;;;2.65;100.00;99533.06;5051344;28;20177;-57
2022/01/10 00:26:51;;;;;;;6.50;3.43;;;;;;;2.95;100.00;99541.41;5051325;28;20172;-57
2022/01/10 00:29:16;;;;;;;14.37;6.50;;;;;;;2.95;100.00;99540.59;5051534;28;20162;-58
2022/01/10 00:31:42;;;;;;;10.33;3.70;;;;;;;2.98;100.00;99543.03;5033131;28;20644;-57
2022/01/10 00:34:07;;;;;;;8.97;4.27;;;;;;;2.97;100.00;99549.81;5053483;28;20600;-57
2022/01/10 00:36:33;;;;;;;12.20;3.47;;;;;;;3.02;100.00;99542.88;5051092;28;20176;-57
2022/01/10 00:38:58;;;;;;;7.27;4.03;;;;;;;2.97;100.00;99549.00;5050989;28;20224;-57
2022/01/10 00:41:24;;;;;;;10.57;4.20;;;;;;;2.95;100.00;99556.66;5050630;28;20228;-57
2022/01/10 00:43:51;;;;;;;8.00;4.40;;;;;;;2.79;100.00;99563.94;5066008;28;20188;-57
2022/01/10 00:46:16;;;;;;;12.27;5.87;;;;;;;2.93;100.00;99570.28;5051059;28;20176;-57
2022/01/10 00:48:42;;;;;;;9.97;5.10;;;;;;;2.98;100.00;99571.81;5050863;28;20175;-57
2022/01/10 00:51:07;;;;;;;11.87;5.63;;;;;;;2.82;100.00;99571.44;5039955;28;20221;-58
2022/01/10 00:53:33;;;;;;;9.07;5.47;;;;;;;2.91;100.00;99580.50;5050033;28;20720;-57
2022/01/10 00:55:58;;;;;;;10.37;5.17;;;;;;;3.01;100.00;99581.03;5032688;28;20719;-56
2022/01/10 00:58:23;;;;;;;10.53;5.00;;;;;;;3.06;100.00;99574.94;5050866;28;20176;-58
2022/01/10 01:00:51;;;;;;;9.97;4.90;;;;;;;3.08;100.00;99577.44;5022141;28;20270;-58
2022/01/10 01:03:16;;;;;;;11.90;5.53;;;;;;;2.95;100.00;99582.06;5050078;28;20248;-57
2022/01/10 01:05:43;;;;;;;12.00;4.80;;;;;;;2.98;100.00;99587.06;5050506;28;20634;-56
2022/01/10 01:08:10;;;;;;;11.37;4.50;;;;;;;3.02;100.00;99592.88;5050640;28;20176;-57
2022/01/10 01:13:22;;;;;;;8.67;3.50;;;;;;;2.47;100.00;99595.34;5050013;28;20692;-58
2022/01/10 01:16:09;;;;;;;10.97;4.13;;;;;;;2.61;100.00;99600.88;5050389;28;20195;-58
2022/01/10 01:26:26;;;;;;;10.87;3.80;;;;;;;2.47;100.00;99625.81;5050758;28;20542;-58
2022/01/10 01:28:52;;;;;;;6.33;3.97;;;;;;;2.56;100.00;99631.47;5050438;28;20230;-58
2022/01/10 01:31:18;;;;;;;9.77;3.57;;;;;;;2.74;100.00;99635.19;5039102;28;20640;-58
2022/01/10 01:33:43;;;;;;;7.30;3.67;;;;;;;2.60;100.00;99639.84;5049513;28;20172;-58
2022/01/10 01:36:09;;;;;;;8.87;4.63;;;;;;;2.68;100.00;99642.16;5050404;28;20195;-58
2022/01/10 01:38:34;;;;;;;6.63;3.37;;;;;;;2.85;100.00;99644.19;5050513;28;20168;-58
2022/01/10 01:41:18;;;;;;;7.90;3.90;;;;;;;2.76;100.00;99650.38;5039416;28;20236;-58
2022/01/10 01:43:44;;;;;;;8.83;3.57;;;;;;;2.80;100.00;99649.41;5049441;28;20169;-58
2022/01/10 01:46:10;;;;;;;9.60;3.60;;;;;;;2.53;100.00;99651.88;5050390;28;20193;-58
2022/01/10 01:48:35;;;;;;;8.87;4.10;;;;;;;2.36;100.00;99659.16;5050193;28;20192;-58
2022/01/10 01:51:02;;;;;;;7.03;3.40;;;;;;;2.55;100.00;99667.88;5039352;28;20595;-58
2022/01/10 01:53:28;;;;;;;10.17;3.90;;;;;;;2.81;100.00;99666.31;5049405;28;20547;-58
2022/01/10 01:55:53;;;;;;;8.93;3.93;;;;;;;2.67;100.00;99671.81;5051738;28;20260;-58
2022/01/10 01:58:18;;;;;;;12.20;4.87;;;;;;;2.71;100.00;99672.53;5054203;28;20184;-58
2022/01/10 02:00:44;;;;;;;10.40;4.67;;;;;;;2.79;100.00;99675.72;5043208;28;20320;-58
2022/01/10 02:03:09;;;;;;;9.27;4.40;;;;;;;2.68;100.00;99676.00;5036126;28;20169;-58
2022/01/10 02:05:34;;;;;;;8.13;4.23;;;;;;;2.48;100.00;99684.19;5054040;28;20204;-58
2022/01/10 02:08:00;;;;;;;11.43;3.77;;;;;;;2.61;100.00;99682.13;5054295;28;20186;-58
2022/01/10 02:10:25;;;;;;;5.70;3.40;;;;;;;2.72;100.00;99689.47;5043531;28;20351;-58
2022/01/10 02:12:50;;;;;;;8.03;3.47;;;;;;;2.79;100.00;99697.72;5053107;28;20176;-58
2022/01/10 02:15:48;;;;;;;6.17;3.90;;;;;;;2.80;100.00;99699.38;5053585;28;20537;-58
2022/01/10 02:18:15;;;;;;;7.57;4.47;;;;;;;2.72;100.00;99692.00;5053383;28;20178;-58
2022/01/10 02:20:40;;;;;;;6.73;3.97;;;;;;;2.82;100.00;99695.94;5043007;28;20244;-58
2022/01/10 02:23:05;;;;;;;8.87;4.17;;;;;;;2.88;100.00;99702.56;5052823;28;20220;-58
2022/01/10 02:25:31;;;;;;;12.53;3.93;;;;;;;2.71;100.00;99703.84;5053401;28;20173;-58
2022/01/10 02:27:56;;;;;;;7.83;3.83;;;;;;;2.70;100.00;99716.59;5053564;28;20168;-58
2022/01/10 02:30:21;;;;;;;7.47;4.60;;;;;;;2.75;100.00;99714.75;5042959;28;20297;-58
2022/01/10 02:32:47;;;;;;;10.63;4.50;;;;;;;2.63;100.00;99718.50;5052499;28;20296;-58
2022/01/10 02:35:24;;;;;;;9.93;4.20;;;;;;;2.54;100.00;99714.50;5053141;28;20188;-57
2022/01/10 02:37:52;;;;;;;8.17;4.37;;;;;;;2.73;100.00;99724.16;5053500;28;20195;-57
2022/01/10 02:40:21;;;;;;;11.57;3.23;;;;;;;2.82;100.00;99731.50;5042632;28;20200;-57
2022/01/10 02:42:46;;;;;;;12.93;4.20;;;;;;;2.63;100.00;99730.34;5052124;28;20180;-58
2022/01/10 02:45:12;;;;;;;9.03;3.10;;;;;;;2.77;100.00;99732.47;5053049;28;20172;-57
2022/01/10 02:47:37;;;;;;;9.93;3.30;;;;;;;2.71;100.00;99729.25;5053182;28;20550;-57
2022/01/10 02:50:04;;;;;;;9.53;3.70;;;;;;;2.28;100.00;99737.19;5044251;28;20291;-57
2022/01/10 02:52:30;;;;;;;9.57;3.80;;;;;;;2.09;100.00;99746.09;5046688;28;20201;-57
2022/01/10 02:54:57;;;;;;;8.50;3.73;;;;;;;2.26;100.00;99742.31;5057474;28;20519;-57
2022/01/10 02:57:22;;;;;;;11.17;4.57;;;;;;;2.47;100.00;99747.69;5064714;28;20175;-58
2022/01/10 02:59:48;;;;;;;7.37;3.20;;;;;;;2.49;100.00;99751.03;5072919;28;20275;-58
2022/01/10 03:02:19;;;;;;;7.17;3.30;;;;;;;2.32;100.00;99751.47;5061231;28;20228;-58
2022/01/10 03:04:44;;;;;;;7.00;3.30;;;;;;;2.38;100.00;99752.16;5072653;28;20259;-58
2022/01/10 03:07:10;;;;;;;7.10;3.50;;;;;;;2.45;100.00;99757.91;5072804;28;20806;-58
2022/01/10 03:09:36;;;;;;;10.40;3.60;;;;;;;2.54;100.00;99761.88;5072897;28;20176;-57
2022/01/10 03:12:02;;;;;;;10.80;4.07;;;;;;;2.44;100.00;99774.00;5060908;28;20226;-57
2022/01/10 03:14:27;;;;;;;7.57;3.40;;;;;;;2.49;100.00;99778.97;5072409;28;20666;-58
2022/01/10 03:16:53;;;;;;;7.73;3.40;;;;;;;2.55;100.00;99782.16;5072596;28;20171;-57
2022/01/10 03:19:18;;;;;;;9.43;3.70;;;;;;;2.54;100.00;99788.13;5072541;28;20199;-58
2022/01/10 03:21:43;;;;;;;9.70;3.40;;;;;;;2.46;100.00;99784.94;5061015;28;20688;-58
2022/01/10 03:24:08;;;;;;;8.20;3.73;;;;;;;2.55;100.00;99796.56;5072036;28;20168;-58
2022/01/10 03:26:34;;;;;;;10.93;3.70;;;;;;;2.68;100.00;99805.53;5072535;28;20369;-58
2022/01/10 03:28:59;;;;;;;6.90;3.83;;;;;;;2.71;100.00;99810.53;5072415;28;20173;-57
2022/01/10 03:31:24;;;;;;;7.83;3.33;;;;;;;2.58;100.00;99812.56;5061085;28;20231;-57
2022/01/10 03:33:50;;;;;;;11.57;3.90;;;;;;;2.74;100.00;99820.63;5071781;28;20183;-57
2022/01/10 03:36:15;;;;;;;7.50;3.50;;;;;;;2.85;100.00;99816.94;5072238;28;20648;-57
2022/01/10 03:38:41;;;;;;;8.70;3.20;;;;;;;2.68;100.00;99818.25;5054172;28;20172;-57
2022/01/10 03:41:06;;;;;;;6.07;3.40;;;;;;;2.78;100.00;99834.06;5060965;28;20234;-57
2022/01/10 03:43:32;;;;;;;7.70;2.90;;;;;;;2.84;100.00;99836.44;5071516;28;20172;-58
2022/01/10 03:45:58;;;;;;;10.40;3.67;;;;;;;2.77;100.00;99837.47;5071913;28;20246;-59
2022/01/10 03:48:24;;;;;;;5.17;2.80;;;;;;;2.60;100.00;99835.38;5072170;28;20271;-58
2022/01/10 03:50:50;;;;;;;8.73;3.80;;;;;;;2.68;100.00;99833.47;5043484;28;20231;-58
2022/01/10 03:53:15;;;;;;;10.90;3.60;;;;;;;2.52;100.00;99840.66;5068034;28;20630;-59
2022/01/10 03:55:41;;;;;;;7.93;3.00;;;;;;;2.44;100.00;99849.34;5051590;28;20177;-56
2022/01/10 03:58:06;;;;;;;6.63;3.00;;;;;;;2.59;100.00;99854.00;5051907;28;20218;-58
2022/01/10 04:00:31;;;;;;;7.40;3.30;;;;;;;2.66;100.00;99859.78;5031058;28;20244;-57
2022/01/10 04:03:02;;;;;;;11.37;3.83;;;;;;;2.79;100.00;99865.38;5050803;28;20173;-58
2022/01/10 04:05:28;;;;;;;7.73;3.33;;;;;;;2.84;100.00;99859.31;5051601;28;20570;-59
2022/01/10 04:07:53;;;;;;;7.43;3.77;;;;;;;2.84;100.00;99863.53;5051731;28;20176;-56
2022/01/10 04:10:19;;;;;;;13.97;5.30;;;;;;;2.98;100.00;99866.56;5041085;28;20683;-58
2022/01/10 04:12:44;;;;;;;8.93;4.47;;;;;;;2.83;100.00;99872.88;5050694;28;20166;-57
2022/01/10 04:15:10;;;;;;;7.03;3.37;;;;;;;2.78;100.00;99873.84;5040919;28;20180;-57
2022/01/10 04:17:36;;;;;;;13.57;4.30;;;;;;;2.72;100.00;99877.41;5050409;28;20172;-57
2022/01/10 04:20:03;;;;;;;10.47;4.03;;;;;;;2.63;100.00;99885.25;5048805;28;20247;-59
2022/01/10 04:22:29;;;;;;;10.33;4.80;;;;;;;2.87;100.00;99887.16;5050092;28;20716;-58
2022/01/10 04:24:54;;;;;;;8.97;3.60;;;;;;;2.84;100.00;99888.94;5051026;28;20264;-57
2022/01/10 04:27:19;;;;;;;9.57;4.03;;;;;;;2.99;100.00;99891.09;5051472;28;20181;-58
2022/01/10 04:29:45;;;;;;;9.43;3.57;;;;;;;2.98;100.00;99893.69;5051101;28;20168;-58
2022/01/10 04:32:12;;;;;;;7.23;3.53;;;;;;;3.10;100.00;99889.97;5019313;28;20323;-58
2022/01/10 04:34:37;;;;;;;8.13;4.03;;;;;;;3.15;100.00;99888.13;5050877;28;20188;-57
2022/01/10 04:37:03;;;;;;;9.07;4.57;;;;;;;3.10;100.00;99890.81;5051126;28;20183;-58
2022/01/10 04:39:28;;;;;;;9.07;3.97;;;;;;;2.98;100.00;99901.31;5050887;28;20191;-56
2022/01/10 04:41:54;;;;;;;8.73;4.40;;;;;;;2.98;100.00;99904.66;5039615;28;20729;-58
2022/01/10 04:44:19;;;;;;;7.43;3.97;;;;;;;3.00;100.00;99915.63;5050595;28;20204;-58
2022/01/10 04:46:45;;;;;;;13.00;4.27;;;;;;;2.98;100.00;99912.28;5053607;28;20635;-57
2022/01/10 04:49:20;;;;;;;7.50;3.43;;;;;;;2.99;100.00;99910.56;5052769;28;20210;-58
2022/01/10 04:51:45;;;;;;;7.57;4.17;;;;;;;2.85;100.00;99923.63;5059428;28;20224;-58
2022/01/10 04:54:10;;;;;;;9.63;4.27;;;;;;;2.78;100.00;99930.59;5059837;28;20230;-58
2022/01/10 04:56:36;;;;;;;10.87;4.63;;;;;;;2.69;100.00;99936.75;5050836;28;20172;-58
2022/01/10 04:59:01;;;;;;;8.53;3.63;;;;;;;2.78;100.00;99937.38;5050883;28;20180;-58
2022/01/10 05:01:26;;;;;;;9.10;3.83;;;;;;;2.78;100.00;99943.31;5039606;28;20228;-58
2022/01/10 05:03:52;;;;;;;8.63;3.60;;;;;;;2.60;100.00;99948.81;5049959;28;20173;-58
2022/01/10 05:06:17;;;;;;;10.33;4.20;;;;;;;2.49;100.00;99942.28;5050649;28;20177;-58
2022/01/10 05:08:42;;;;;;;12.20;4.53;;;;;;;2.40;100.00;99958.56;5050647;28;20176;-58
2022/01/10 05:11:08;;;;;;;13.53;4.60;;;;;;;2.04;100.00;99966.13;5039533;28;20697;-58
2022/01/10 05:13:34;;;;;;;8.17;3.70;;;;;;;2.05;100.00;99974.59;5049767;28;20192;-58
2022/01/10 05:15:59;;;;;;;11.30;4.07;;;;;;;2.01;100.00;99972.97;5050347;28;20259;-58
2022/01/10 05:18:24;;;;;;;6.87;3.70;;;;;;;1.84;100.00;99983.50;5050539;28;20260;-57
2022/01/10 05:20:50;;;;;;;8.93;4.23;;;;;;;1.71;100.00;99988.81;5039338;28;20667;-57
2022/01/10 05:23:16;;;;;;;6.07;3.67;;;;;;;1.49;100.00;99996.00;5049526;28;20176;-58
2022/01/10 05:25:41;;;;;;;13.50;5.57;;;;;;;1.32;100.00;99993.75;5050225;28;20206;-58
2022/01/10 05:28:09;;;;;;;12.17;4.27;;;;;;;1.33;100.00;100004.72;5050264;28;20178;-58
2022/01/10 05:30:34;;;;;;;10.67;3.80;;;;;;;1.28;100.00;100003.13;5040460;28;20315;-58
2022/01/10 05:33:00;;;;;;;8.37;4.07;;;;;;;1.21;100.00;100011.69;5053567;28;20619;-58
2022/01/10 05:35:25;;;;;;;10.90;4.57;;;;;;;1.07;100.00;100014.47;5054190;28;20268;-58
2022/01/10 05:37:50;;;;;;;11.27;4.30;;;;;;;0.98;100.00;100019.69;5054560;28;20666;-57
2022/01/10 05:40:16;;;;;;;7.80;4.17;;;;;;;0.99;100.00;100015.44;5043726;28;20682;-57
2022/01/10 05:42:42;;;;;;;11.23;4.57;;;;;;;1.05;100.00;100023.78;5053223;28;20817;-57
2022/01/10 05:45:07;;;;;;;13.80;3.90;;;;;;;1.02;100.00;100030.56;5053852;28;20212;-58
2022/01/10 05:47:41;;;;;;;14.90;4.00;;;;;;;0.96;100.00;100034.06;5054327;28;20188;-58
2022/01/10 05:50:09;;;;;;;9.50;4.03;;;;;;;0.93;100.00;100037.50;5044134;28;20189;-57
2022/01/10 05:52:34;;;;;;;7.07;3.50;;;;;;;0.91;100.00;100045.97;5053053;28;20200;-57
2022/01/10 05:54:59;;;;;;;10.97;4.63;;;;;;;0.84;100.00;100046.91;5056806;28;20181;-57
2022/01/10 05:57:25;;;;;;;13.77;4.37;;;;;;;0.80;100.00;100051.19;5057280;28;20243;-57
2022/01/10 05:59:50;;;;;;;10.30;4.07;;;;;;;0.77;100.00;100063.88;5055572;28;20209;-58
2022/01/10 06:02:16;;;;;;;8.20;4.10;;;;;;;0.69;100.00;100066.53;5043382;28;20247;-57
2022/01/10 06:04:41;;;;;;;9.97;4.07;;;;;;;0.68;100.00;100069.91;5055418;28;20180;-56
2022/01/10 06:07:06;;;;;;;8.83;4.27;;;;;;;0.60;100.00;100080.16;5056977;28;20174;-57
2022/01/10 06:09:32;;;;;;;8.47;4.27;;;;;;;0.64;100.00;100079.28;5058493;28;20169;-57
2022/01/10 06:11:57;;;;;;;9.10;4.20;;;;;;;0.61;100.00;100081.84;5042964;28;20320;-57
2022/01/10 06:14:22;;;;;;;11.10;3.93;;;;;;;0.66;100.00;100083.47;5054045;28;20169;-57
2022/01/10 06:16:48;;;;;;;9.50;4.20;;;;;;;0.59;100.00;100088.59;5054271;28;20224;-56
2022/01/10 06:19:13;;;;;;;16.50;4.50;;;;;;;0.61;100.00;100096.22;5054709;28;20193;-57
2022/01/10 06:21:39;;;;;;;10.57;4.17;;;;;;;0.52;100.00;100102.22;5042455;28;20589;-57
2022/01/10 06:24:05;;;;;;;9.17;4.80;;;;;;;0.51;100.00;100105.63;5061265;28;20181;-57
2022/01/10 06:26:30;;;;;;;9.10;4.20;;;;;;;0.53;100.00;100113.19;5060731;28;20858;-57
2022/01/10 06:28:55;;;;;;;12.90;4.80;;;;;;;0.46;100.00;100118.31;5063148;28;20173;-57
2022/01/10 06:31:21;;;;;;;11.73;4.13;;;;;;;0.43;100.00;100120.88;5055506;28;20315;-57
2022/01/10 06:33:46;;;;;;;13.60;5.60;;;;;;;0.07;100.00;100122.97;5061345;28;20180;-57
2022/01/10 06:36:11;;;;;;;18.20;5.30;;;;;;;-0.05;100.00;100131.56;5061432;28;20197;-56
2022/01/10 06:38:37;;;;;;;16.13;5.60;;;;;;;-0.07;100.00;100133.25;5063047;28;20651;-57
2022/01/10 06:41:02;;;;;;;11.27;4.87;;;;;;;0.07;100.00;100139.88;5053534;28;20967;-56
2022/01/10 06:43:27;;;;;;;12.37;4.90;;;;;;;0.11;100.00;100146.56;5063932;28;20177;-57
2022/01/10 06:45:53;;;;;;;13.50;5.57;;;;;;;0.11;100.00;100147.41;5053144;28;20166;-56
2022/01/10 06:48:18;;;;;;;13.30;5.13;;;;;;;0.21;100.00;100154.88;5054921;28;20291;-57
2022/01/10 06:50:47;;;;;;;12.90;5.33;;;;;;;0.29;100.00;100159.00;5056066;28;20240;-57
2022/01/10 06:53:14;;;;;;;13.93;5.07;;;;;;;0.17;100.00;100163.38;5064299;28;20174;-57
2022/01/10 06:55:39;;;;;;;17.47;5.13;;;;;;;0.02;100.00;100169.44;5060363;28;20181;-57
2022/01/10 06:58:05;;;;;;;12.03;5.83;;;;;;;-0.08;100.00;100174.56;5051510;28;20166;-58
2022/01/10 07:00:30;;;;;;;16.23;6.80;;;;;;;-0.08;100.00;100177.09;5046009;28;20689;-57
2022/01/10 07:02:55;;;;;;;20.27;6.87;;;;;;;-0.05;100.00;100178.75;5064753;28;20212;-56
2022/01/10 07:05:21;;;;;;;13.17;5.73;;;;;;;-0.03;100.00;100185.47;5052521;28;20177;-57
2022/01/10 07:07:46;;;;;;;8.53;5.40;;;;;;;0.05;100.00;100185.41;5052946;28;20184;-57
2022/01/10 07:10:11;;;;;;;16.83;5.23;;;;;;;-0.01;100.00;100204.00;5043670;28;20186;-57
2022/01/10 07:12:37;;;;;;;13.97;6.00;;;;;;;0.02;100.00;100197.25;5066862;28;20170;-57
2022/01/10 07:15:02;;;;;;;19.60;7.43;;;;;;;-0.01;100.00;100203.19;5052339;28;20165;-57
2022/01/10 07:17:29;;;;;;;15.07;6.90;;;;;;;0.07;100.00;100210.69;5052555;28;20165;-58
2022/01/10 07:19:55;;;;;;;11.97;6.27;;;;;;;0.11;100.00;100217.38;5052383;28;20189;-57
2022/01/10 07:22:20;;;;;;;21.33;6.70;;;;;;;0.15;100.00;100221.59;5041583;28;20739;-57
2022/01/10 07:24:45;;;;;;;14.43;6.43;;;;;;;0.12;100.00;100227.47;5051851;28;20208;-58
2022/01/10 07:27:11;;;;;;;13.33;6.33;;;;;;;0.15;100.00;100235.06;5052196;28;20239;-58
2022/01/10 07:29:36;;;;;;;12.10;6.73;;;;;;;0.17;100.00;100250.22;5051882;28;20169;-57
2022/01/10 07:32:02;;;;;;;18.30;7.63;;;;;;;0.18;100.00;100246.00;5056764;28;20236;-57
2022/01/10 07:34:27;;;;;;;17.43;7.33;;;;;;;0.19;100.00;100247.66;5051981;28;20751;-60
2022/01/10 07:36:53;;;;;;;19.23;7.53;;;;;;;0.22;100.00;100256.06;5052282;28;20248;-57
2022/01/10 07:39:18;;;;;;;18.60;7.17;;;;;;;0.20;100.00;100251.88;5051993;28;20243;-57
2022/01/10 07:41:43;;;;;;;15.17;6.33;;;;;;;0.29;100.00;100259.38;5054472;28;20224;-57
2022/01/10 07:44:08;;;;;;;12.93;7.13;;;;;;;0.32;100.00;100266.94;5054218;28;20553;-58
2022/01/10 07:46:34;;;;;;;21.53;7.00;;;;;;;-0.02;100.00;100270.59;5052028;28;20166;-58
2022/01/10 07:48:59;;;;;;;17.00;8.43;;;;;;;-0.02;100.00;100277.38;5051755;28;20169;-57
2022/01/10 07:51:26;;;;;;;17.23;8.03;;;;;;;-0.01;100.00;100277.34;5040670;28;20225;-57
2022/01/10 07:53:52;;;;;;;13.87;6.97;;;;;;;0.09;100.00;100279.81;5050228;28;20180;-57
2022/01/10 07:56:18;;;;;;;17.17;7.27;;;;;;;0.12;100.00;100297.47;5051645;28;20200;-57
2022/01/10 07:58:43;;;;;;;13.80;6.93;;;;;;;0.14;100.00;100298.31;5051605;28;20253;-57
2022/01/10 08:01:09;;;;;;;17.13;7.17;;;;;;;0.03;100.00;100300.94;5030094;28;20684;-57
2022/01/10 08:03:34;;;;;;;15.53;7.30;;;;;;;0.15;100.00;100305.06;5050545;28;20646;-57
2022/01/10 08:06:00;;;;;;;15.50;7.17;;;;;;;0.28;100.00;100301.53;5051379;28;20195;-56
2022/01/10 08:08:25;;;;;;;15.87;8.20;;;;;;;0.30;100.00;100304.91;5044070;28;20182;-57
2022/01/10 08:10:51;;;;;;;19.50;9.10;;;;;;;0.35;100.00;100302.34;5033553;28;20228;-57
2022/01/10 08:13:16;;;;;;;24.00;8.90;;;;;;;0.30;100.00;100309.97;5050710;28;20268;-57
2022/01/10 08:15:42;;;;;;;18.63;8.90;;;;;;;0.24;100.00;100311.72;5042102;28;20228;-57
2022/01/10 08:18:08;;;;;;;12.83;8.23;;;;;;;0.31;100.00;100324.31;5051927;28;20204;-57
2022/01/10 08:20:33;;;;;;;15.93;7.80;;;;;;;0.46;100.00;100330.94;5053032;28;20238;-57
2022/01/10 08:22:59;;;;;;;15.43;7.63;;;;;;;0.47;100.00;100326.69;5062272;28;20176;-57
2022/01/10 08:25:24;;;;;;;20.43;8.30;;;;;;;0.61;100.00;100335.00;5054675;28;20294;-57
2022/01/10 08:27:50;;;;;;;14.53;8.57;;;;;;;0.69;100.00;100337.44;5051028;28;20274;-58
2022/01/10 08:30:15;;;;;;;16.80;8.57;;;;;;;0.80;100.00;100339.88;5024304;28;20274;-57
2022/01/10 08:32:41;;;;;;;15.80;7.97;;;;;;;0.84;100.00;100341.53;5027747;28;20232;-57
2022/01/10 08:35:07;;;;;;;28.67;9.43;;;;;;;0.95;100.00;100347.31;5053408;28;20197;-58
2022/01/10 08:37:33;;;;;;;21.77;9.60;;;;;;;0.94;100.00;100354.94;5059793;28;20189;-57
2022/01/10 08:39:58;;;;;;;19.30;9.63;;;;;;;0.99;100.00;100365.03;5054872;28;20561;-58
2022/01/10 08:42:26;;;;;;;18.63;9.90;;;;;;;0.91;100.00;100370.16;5039104;28;20570;-57
2022/01/10 08:44:52;;;;;;;17.50;9.17;;;;;;;1.06;100.00;100366.63;5050623;28;20193;-58
2022/01/10 08:47:18;;;;;;;19.27;9.13;;;;;;;1.18;100.00;100374.09;5055820;28;20173;-58
2022/01/10 08:49:43;;;;;;;16.57;9.90;;;;;;;1.27;100.00;100375.69;5054711;28;20841;-57
2022/01/10 08:52:09;;;;;;;18.63;10.13;;;;;;;1.28;100.00;100383.25;5052356;28;20231;-58
2022/01/10 08:54:35;;;;;;;15.53;10.10;;;;;;;1.34;100.00;100381.50;5053469;28;20634;-58
2022/01/10 08:57:02;;;;;;;21.40;10.60;;;;;;;1.36;100.00;100388.25;5057819;28;20185;-57
2022/01/10 08:59:28;;;;;;;17.60;9.77;;;;;;;1.51;100.00;100391.44;5050423;28;20720;-58
2022/01/10 09:01:55;;;;;;;17.50;11.23;;;;;;;1.74;100.00;100399.59;5048678;28;20282;-57
2022/01/10 09:04:20;;;;;;;20.63;10.83;;;;;;;2.01;100.00;100394.16;5050894;28;20344;-58
2022/01/10 09:06:48;;;;;;;23.73;10.03;;;;;;;2.39;100.00;100405.44;5050485;28;20697;-58
2022/01/10 09:09:15;;;;;;;18.40;9.40;;;;;;;3.26;100.00;100406.47;5050464;28;20174;-58
2022/01/10 09:11:41;;;;;;;14.30;8.57;;;;;;;4.65;95.31;100404.25;5038860;28;20601;-58
2022/01/10 09:14:07;;;;;;;16.23;8.27;;;;;;;6.51;82.95;100398.97;5053868;28;20652;-58
2022/01/10 09:16:33;;;;;;;14.73;8.03;;;;;;;7.54;72.94;100404.78;5053565;28;20200;-58
2022/01/10 09:18:58;;;;;;;11.33;6.20;;;;;;;9.10;65.49;100402.84;5052609;28;20185;-58
2022/01/10 09:21:24;;;;;;;18.30;6.33;;;;;;;10.41;58.41;100411.44;5038925;28;20315;-58
2022/01/10 09:23:50;;;;;;;13.93;6.33;;;;;;;11.71;53.43;100419.41;5052534;28;20200;-56
2022/01/10 09:26:15;;;;;;;12.43;6.27;;;;;;;12.63;49.07;100425.53;5056567;28;20269;-57
2022/01/10 09:28:43;;;;;;;8.83;5.33;;;;;;;13.22;46.34;100425.50;5053097;28;20222;-56
2022/01/10 09:31:08;;;;;;;12.77;5.00;;;;;;;13.74;45.12;100437.00;5032503;28;20237;-58
2022/01/10 09:33:33;;;;;;;12.70;5.27;;;;;;;13.74;44.12;100439.56;5041582;28;20594;-58
2022/01/10 09:35:59;;;;;;;9.83;5.03;;;;;;;13.66;43.72;100447.00;5050065;28;20283;-58
2022/01/10 09:38:24;;;;;;;11.70;5.83;;;;;;;13.59;43.96;100451.69;5050203;28;20186;-58
2022/01/10 09:40:49;;;;;;;9.67;5.17;;;;;;;13.21;43.96;100454.84;5046056;28;20698;-58
2022/01/10 09:43:15;;;;;;;9.40;5.33;;;;;;;11.98;46.83;100467.84;5059644;28;20181;-57
2022/01/10 09:45:40;;;;;;;13.53;6.10;;;;;;;10.69;49.51;100476.97;5051580;28;20230;-57
2022/01/10 09:48:06;;;;;;;11.90;6.07;;;;;;;9.76;52.98;100475.28;5050155;28;20223;-57
2022/01/10 09:50:31;;;;;;;16.00;10.73;;;;;;;9.55;54.72;100479.66;5039577;28;20298;-57
2022/01/10 09:52:57;;;;;;;10.80;6.90;;;;;;;9.68;54.69;100480.78;5049729;28;20197;-58
2022/01/10 09:55:22;;;;;;;8.27;6.17;;;;;;;9.79;54.32;100480.31;5070127;28;20175;-57
2022/01/10 09:57:48;;;;;;;11.67;5.67;;;;;;;10.14;53.66;100486.38;5070464;28;20177;-57
2022/01/10 10:00:15;;;;;;;10.30;6.23;;;;;;;11.56;49.90;100482.91;5059306;28;20286;-57
2022/01/10 10:02:41;;;;;;;13.07;5.67;;;;;;;12.80;45.51;100484.78;5068913;28;20181;-57
2022/01/10 10:05:10;;;;;;;11.07;5.40;;;;;;;13.10;44.15;100483.91;5069871;28;20198;-57
2022/01/10 10:07:37;;;;;;;11.40;5.27;;;;;;;13.49;43.54;100486.78;5070141;28;20177;-57
2022/01/10 10:10:11;;;;;;;13.77;5.80;;;;;;;14.54;41.22;100493.19;5050418;28;20181;-58
2022/01/10 10:12:41;;;;;;;9.83;5.93;;;;;;;15.41;39.20;100493.47;5068921;28;20180;-57
2022/01/10 10:15:09;;;;;;;14.00;5.33;;;;;;;14.49;40.37;100503.81;5069794;28;20165;-58
2022/01/10 10:17:36;;;;;;;10.40;6.43;;;;;;;12.41;43.21;100510.16;5072387;28;20168;-57
2022/01/10 10:20:16;;;;;;;13.27;5.57;;;;;;;10.59;47.75;100517.75;5073643;28;20243;-57
2022/01/10 10:22:43;;;;;;;13.63;6.40;;;;;;;9.56;51.05;100515.53;5045458;28;20770;-57
2022/01/10 10:25:10;;;;;;;13.93;7.40;;;;;;;8.85;53.92;100511.66;5073326;28;20176;-57
2022/01/10 10:27:41;;;;;;;13.10;6.87;;;;;;;8.15;56.06;100520.34;5073504;28;20180;-57
2022/01/10 10:30:15;;;;;;;12.17;7.20;;;;;;;7.52;59.07;100524.31;5062416;28;20661;-57
2022/01/10 10:32:41;;;;;;;14.60;7.93;;;;;;;7.10;62.18;100527.44;5066394;28;20626;-57
2022/01/10 10:35:07;;;;;;;13.33;7.50;;;;;;;6.81;64.04;100531.78;5053009;28;20204;-57
2022/01/10 10:37:38;;;;;;;14.23;7.77;;;;;;;6.54;65.72;100539.44;5053277;28;20169;-59
2022/01/10 10:40:07;;;;;;;17.37;8.20;;;;;;;6.25;67.84;100537.75;5042425;28;20304;-57
2022/01/10 10:42:33;;;;;;;13.93;7.93;;;;;;;5.70;70.93;100542.69;5067874;28;20189;-57
2022/01/10 10:45:02;;;;;;;13.40;8.53;;;;;;;5.47;73.34;100544.97;5053035;28;20268;-57
2022/01/10 10:47:28;;;;;;;14.53;8.33;;;;;;;5.07;75.32;100540.03;5062564;28;20260;-57
2022/01/10 10:49:58;;;;;;;16.63;9.60;;;;;;;4.85;78.23;100548.22;5073380;28;20172;-57
2022/01/10 10:52:30;;;;;;;15.83;8.73;;;;;;;4.82;78.28;100544.00;5056051;28;20696;-57
2022/01/10 10:54:55;;;;;;;14.03;7.97;;;;;;;4.65;78.38;100556.28;5069440;28;20673;-57
2022/01/10 10:57:21;;;;;;;13.30;7.40;;;;;;;4.40;79.70;100546.66;5072846;28;20178;-57
2022/01/10 10:59:48;;;;;;;18.07;8.33;;;;;;;4.31;81.01;100552.78;5072867;28;20681;-58
2022/01/10 11:02:14;;;;;;;16.03;8.87;;;;;;;4.34;80.88;100551.88;5061260;28;20323;-58
2022/01/10 11:04:41;;;;;;;15.07;7.83;;;;;;;4.53;81.11;100554.88;5065815;28;20250;-58
2022/01/10 11:07:06;;;;;;;20.40;9.03;;;;;;;4.36;81.28;100553.53;5052946;28;20186;-57
2022/01/10 11:09:31;;;;;;;17.40;8.27;;;;;;;4.38;82.21;100558.59;5052912;28;20169;-58
2022/01/10 11:11:56;;;;;;;18.87;8.57;;;;;;;4.38;82.19;100560.28;5041519;28;20323;-58
2022/01/10 11:14:24;;;;;;;12.83;8.30;;;;;;;4.41;82.31;100570.44;5052534;28;20177;-58
2022/01/10 11:16:52;;;;;;;15.30;8.03;;;;;;;4.40;81.82;100574.66;5056020;28;20224;-58
2022/01/10 11:19:27;;;;;;;20.37;9.10;;;;;;;4.32;81.66;100577.38;5062622;28;20654;-58
2022/01/10 11:22:07;;;;;;;17.87;9.00;;;;;;;4.33;80.88;100586.72;5052268;28;20696;-58
2022/01/10 11:24:48;;;;;;;19.07;8.10;;;;;;;4.45;81.14;100582.22;5050224;28;20189;-59
2022/01/10 11:27:33;;;;;;;23.13;8.67;;;;;;;4.56;80.51;100582.00;5052362;28;20231;-59
2022/01/10 11:30:02;;;;;;;14.30;8.60;;;;;;;4.58;80.13;100585.38;5052277;28;20169;-58